createdAt,value
2023-05-19T00:00:40.193Z,101817.00
2023-05-19T00:05:46.491Z,101819.56
2023-05-19T00:10:48.870Z,101809.75
2023-05-19T00:15:51.398Z,101805.28
2023-05-19T00:20:53.480Z,101807.88
2023-05-19T00:25:55.320Z,101803.41
2023-05-19T00:30:57.394Z,101805.13
2023-05-19T00:35:59.239Z,101799.78
2023-05-19T00:41:02.658Z,101803.31
2023-05-19T00:46:04.817Z,101804.13
2023-05-19T00:51:07.403Z,101805.94
2023-05-19T00:56:09.457Z,101804.09
2023-05-19T01:01:12.566Z,101810.25
2023-05-19T01:06:15.331Z,101806.66
2023-05-19T01:11:17.611Z,101800.38
2023-05-19T01:16:27.463Z,101796.81
2023-05-19T01:21:55.802Z,101809.16
2023-05-19T01:27:38.924Z,101812.63
2023-05-19T01:32:42.439Z,101811.78
2023-05-19T01:37:45.682Z,101809.06
2023-05-19T01:42:48.195Z,101816.94
2023-05-19T01:47:54.175Z,101819.56
2023-05-19T01:52:56.760Z,101815.06
2023-05-19T01:58:20.123Z,101817.69
2023-05-19T02:03:28.044Z,101818.59
2023-05-19T02:08:44.669Z,101813.22
2023-05-19T02:13:51.582Z,101818.50
2023-05-19T02:18:54.469Z,101817.56
2023-05-19T02:23:56.571Z,101822.84
2023-05-19T02:28:58.470Z,101821.06
2023-05-19T02:34:00.549Z,101818.31
2023-05-19T02:39:03.265Z,101819.19
2023-05-19T02:44:05.951Z,101812.03
2023-05-19T02:49:07.976Z,101827.94
2023-05-19T02:54:10.023Z,101824.31
2023-05-19T02:59:12.026Z,101829.59
2023-05-19T03:04:14.321Z,101826.91
2023-05-19T03:09:16.559Z,101824.25
2023-05-19T03:14:18.930Z,101839.28
2023-05-19T03:19:21.212Z,101830.44
2023-05-19T03:24:23.464Z,101836.63
2023-05-19T03:29:25.339Z,101833.16
2023-05-19T03:34:27.475Z,101837.59
2023-05-19T03:39:29.559Z,101828.81
2023-05-19T03:44:31.590Z,101827.97
2023-05-19T03:49:33.643Z,101829.78
2023-05-19T03:54:36.367Z,101826.28
2023-05-19T03:59:38.643Z,101818.31
2023-05-19T04:04:40.704Z,101820.16
2023-05-19T04:09:43.205Z,101821.94
2023-05-19T04:14:45.275Z,101822.81
2023-05-19T04:19:47.174Z,101825.56
2023-05-19T04:24:50.711Z,101822.03
2023-05-19T04:29:53.117Z,101823.84
2023-05-19T04:34:55.297Z,101820.34
2023-05-19T04:39:57.480Z,101826.63
2023-05-19T04:44:59.646Z,101827.53
2023-05-19T04:50:01.745Z,101826.69
2023-05-19T04:55:04.367Z,101832.94
2023-05-19T05:00:09.367Z,101843.63
2023-05-19T05:05:11.413Z,101839.28
2023-05-19T05:10:13.377Z,101847.31
2023-05-19T05:15:16.216Z,101851.78
2023-05-19T05:20:19.922Z,101853.56
2023-05-19T05:25:22.351Z,101846.53
2023-05-19T05:30:24.404Z,101841.25
2023-05-19T05:35:26.405Z,101837.75
2023-05-19T05:40:28.402Z,101842.25
2023-05-19T05:45:30.811Z,101845.81
2023-05-19T05:50:33.606Z,101852.97
2023-05-19T05:55:36.123Z,101847.69
2023-05-19T06:00:38.985Z,101849.59
2023-05-19T06:05:47.723Z,101848.78
2023-05-19T06:10:50.935Z,101842.63
2023-05-19T06:15:53.291Z,101848.94
2023-05-19T06:20:55.812Z,101851.63
2023-05-19T06:25:58.065Z,101846.38
2023-05-19T06:31:00.512Z,101837.63
2023-05-19T06:36:02.760Z,101843.06
2023-05-19T06:41:05.722Z,101847.59
2023-05-19T06:46:08.417Z,101844.16
2023-05-19T06:51:15.244Z,101839.81
2023-05-19T06:56:19.146Z,101845.28
2023-05-19T07:01:21.642Z,101847.13
2023-05-19T07:06:24.145Z,101848.09
2023-05-19T07:11:27.199Z,101845.50
2023-05-19T07:16:38.674Z,101850.06
2023-05-19T07:21:42.743Z,101850.09
2023-05-19T07:26:44.977Z,101843.94
2023-05-19T07:31:47.108Z,101838.66
2023-05-19T07:36:49.297Z,101838.69
2023-05-19T07:41:54.663Z,101838.78
2023-05-19T07:46:56.705Z,101833.50
2023-05-19T07:51:58.839Z,101831.78
2023-05-19T07:57:01.300Z,101831.81
2023-05-19T08:02:03.735Z,101837.22
2023-05-19T08:07:05.911Z,101819.50
2023-05-19T08:12:08.278Z,101825.78
2023-05-19T08:17:10.561Z,101823.16
2023-05-19T08:22:12.798Z,101813.44
2023-05-19T08:27:14.818Z,101804.63
2023-05-19T08:32:17.793Z,101811.78
2023-05-19T08:37:19.842Z,101817.13
2023-05-19T08:42:21.919Z,101815.31
2023-05-19T08:47:24.207Z,101827.75
2023-05-19T08:52:37.015Z,101824.22
2023-05-19T08:57:39.885Z,101832.22
2023-05-19T09:02:50.628Z,101831.31
2023-05-19T09:08:05.255Z,101828.63
2023-05-19T09:13:07.875Z,101809.06
2023-05-19T09:18:13.305Z,101819.75
2023-05-19T09:23:16.955Z,101823.31
2023-05-19T09:28:25.995Z,101823.31
2023-05-19T09:33:28.893Z,101805.50
2023-05-19T09:38:31.058Z,101809.06
2023-05-19T09:43:34.613Z,101813.53
2023-05-19T09:48:37.727Z,101815.31
2023-05-19T09:53:40.094Z,101813.53
2023-05-19T09:58:43.004Z,101816.22
2023-05-19T10:03:45.561Z,101800.19
2023-05-19T10:08:48.448Z,101794.88
2023-05-19T10:13:51.867Z,101790.44
2023-05-19T10:18:57.470Z,101789.53
2023-05-19T10:23:59.657Z,101793.09
2023-05-19T10:29:03.711Z,101799.34
2023-05-19T10:34:50.651Z,101809.13
2023-05-19T10:39:53.650Z,101805.56
2023-05-19T10:45:10.501Z,101793.97
2023-05-19T10:50:12.811Z,101791.31
2023-05-19T10:55:18.339Z,101803.78
2023-05-19T11:00:32.285Z,101806.47
2023-05-19T11:05:37.424Z,101801.13
2023-05-19T11:10:39.967Z,101794.88
2023-05-19T11:15:43.417Z,101806.47
2023-05-19T11:20:58.664Z,101804.69
2023-05-19T11:26:03.055Z,101797.56
2023-05-19T11:31:08.395Z,101788.66
2023-05-19T11:36:11.417Z,101794.88
2023-05-19T11:41:18.231Z,101794.00
2023-05-19T11:46:21.387Z,101787.75
2023-05-19T11:51:23.761Z,101792.22
2023-05-19T11:56:26.773Z,101791.31
2023-05-19T12:01:28.892Z,101796.66
2023-05-19T12:06:31.618Z,101796.66
2023-05-19T12:11:35.312Z,101796.72
2023-05-19T12:16:37.467Z,101796.72
2023-05-19T12:21:39.909Z,101791.38
2023-05-19T12:26:42.116Z,101794.03
2023-05-19T12:31:47.168Z,101799.34
2023-05-19T12:36:50.114Z,101804.69
2023-05-19T12:41:52.349Z,101811.81
2023-05-19T12:46:54.682Z,101804.69
2023-05-19T12:51:56.935Z,101797.53
2023-05-19T12:57:00.494Z,101799.34
2023-05-19T13:02:02.857Z,101794.00
2023-05-19T13:07:06.112Z,101778.84
2023-05-19T13:12:08.458Z,101785.09
2023-05-19T13:17:10.595Z,101787.75
2023-05-19T13:22:12.828Z,101782.41
2023-05-19T13:27:16.115Z,101785.09
2023-05-19T13:32:18.383Z,101786.91
2023-05-19T13:37:20.997Z,101793.16
2023-05-19T13:42:23.607Z,101787.81
2023-05-19T13:47:26.666Z,101788.66
2023-05-19T13:52:30.486Z,101782.41
2023-05-19T13:57:33.432Z,101783.31
2023-05-19T14:02:36.581Z,101773.50
2023-05-19T14:07:39.173Z,101777.06
2023-05-19T14:13:04.754Z,101767.28
2023-05-19T14:18:05.044Z,101769.09
2023-05-19T14:23:08.945Z,101773.56
2023-05-19T14:28:11.582Z,101767.31
2023-05-19T14:33:16.167Z,101765.53
2023-05-19T14:38:23.075Z,101771.78
2023-05-19T14:43:25.519Z,101773.56
2023-05-19T14:48:32.055Z,101774.44
2023-05-19T14:53:34.219Z,101770.00
2023-05-19T14:58:37.416Z,101772.66
2023-05-19T15:03:39.738Z,101773.56
2023-05-19T15:08:41.994Z,101774.44
2023-05-19T15:13:44.411Z,101777.13
2023-05-19T15:18:46.799Z,101779.78
2023-05-19T15:23:48.935Z,101774.44
2023-05-19T15:28:53.203Z,101768.22
2023-05-19T15:33:55.450Z,101768.22
2023-05-19T15:38:57.649Z,101769.09
2023-05-19T15:44:02.889Z,101762.88
2023-05-19T15:49:07.334Z,101765.53
2023-05-19T15:54:11.175Z,101763.75
2023-05-19T15:59:36.649Z,101754.84
2023-05-19T16:04:45.782Z,101758.41
2023-05-19T16:09:48.412Z,101753.97
2023-05-19T16:14:51.314Z,101755.75
2023-05-19T16:19:53.520Z,101759.31
2023-05-19T16:24:55.840Z,101761.09
2023-05-19T16:29:58.054Z,101758.41
2023-05-19T16:35:00.368Z,101762.88
2023-05-19T16:40:02.549Z,101760.19
2023-05-19T16:45:05.872Z,101756.63
2023-05-19T16:50:08.860Z,101764.63
2023-05-19T16:55:13.355Z,101759.25
2023-05-19T17:00:15.975Z,101759.25
2023-05-19T17:05:18.220Z,101763.72
2023-05-19T17:10:21.056Z,101762.81
2023-05-19T17:15:23.447Z,101763.72
2023-05-19T17:20:25.673Z,101761.94
2023-05-19T17:25:27.878Z,101754.81
2023-05-19T17:30:30.138Z,101769.03
2023-05-19T17:35:34.279Z,101762.84
2023-05-19T17:40:38.593Z,101756.63
2023-05-19T17:45:42.052Z,101762.84
2023-05-19T17:50:48.321Z,101767.28
2023-05-19T17:56:01.971Z,101765.50
2023-05-19T18:01:04.900Z,101767.28
2023-05-19T18:06:07.936Z,101760.16
2023-05-19T18:11:13.813Z,101761.03
2023-05-19T18:16:16.281Z,101753.91
2023-05-19T18:21:20.899Z,101768.16
2023-05-19T18:26:23.509Z,101770.81
2023-05-19T18:31:26.347Z,101779.69
2023-05-19T18:36:41.426Z,101781.47
2023-05-19T18:41:44.913Z,101782.34
2023-05-19T18:46:47.231Z,101789.44
2023-05-19T18:51:50.397Z,101789.44
2023-05-19T18:56:53.195Z,101788.56
2023-05-19T19:01:56.163Z,101792.09
2023-05-19T19:06:58.601Z,101786.75
2023-05-19T19:12:01.200Z,101788.53
2023-05-19T19:17:03.420Z,101796.53
2023-05-19T19:22:05.672Z,101794.72
2023-05-19T19:27:07.775Z,101791.16
2023-05-19T19:32:17.401Z,101796.50
2023-05-19T19:37:23.059Z,101794.72
2023-05-19T19:42:25.875Z,101800.03
2023-05-19T19:47:27.856Z,101796.47
2023-05-19T19:52:30.303Z,101798.25
2023-05-19T19:57:34.679Z,101796.47
2023-05-19T20:02:45.529Z,101797.34
2023-05-19T20:07:57.855Z,101804.44
2023-05-19T20:13:00.043Z,101801.78
2023-05-19T20:18:03.701Z,101805.31
2023-05-19T20:23:06.375Z,101803.53
2023-05-19T20:28:08.627Z,101814.19
2023-05-19T20:33:12.407Z,101805.28
2023-05-19T20:38:15.008Z,101806.16
2023-05-19T20:43:17.026Z,101801.72
2023-05-19T20:48:19.143Z,101802.59
2023-05-19T20:53:22.134Z,101810.59
2023-05-19T20:58:26.943Z,101814.16
2023-05-19T21:03:30.656Z,101814.16
2023-05-19T21:08:33.061Z,101803.47
2023-05-19T21:13:39.386Z,101810.59
2023-05-19T21:18:42.136Z,101806.13
2023-05-19T21:23:44.053Z,101798.13
2023-05-19T21:28:45.828Z,101815.03
2023-05-19T21:33:47.859Z,101815.88
2023-05-19T21:38:49.778Z,101815.88
2023-05-19T21:43:51.676Z,101810.53
2023-05-19T21:48:53.541Z,101815.00
2023-05-19T21:53:55.883Z,101815.88
2023-05-19T21:58:57.870Z,101819.41
2023-05-19T22:03:59.686Z,101818.53
2023-05-19T22:09:02.776Z,101815.84
2023-05-19T22:14:04.847Z,101815.84
2023-05-19T22:19:06.937Z,101818.50
2023-05-19T22:24:09.046Z,101819.41
2023-05-19T22:29:15.292Z,101806.03
2023-05-19T22:34:17.596Z,101802.47
2023-05-19T22:39:19.580Z,101800.69
2023-05-19T22:44:21.760Z,101795.34
2023-05-19T22:49:23.883Z,101798.91
2023-05-19T22:54:25.805Z,101800.69
2023-05-19T22:59:27.993Z,101793.56
2023-05-19T23:04:29.994Z,101795.34
2023-05-19T23:09:32.024Z,101797.09
2023-05-19T23:14:33.847Z,101794.44
2023-05-19T23:19:37.163Z,101802.44
2023-05-19T23:24:39.056Z,101794.41
2023-05-19T23:29:40.908Z,101802.41
2023-05-19T23:34:42.883Z,101801.53
2023-05-19T23:39:54.755Z,101799.72
2023-05-19T23:44:56.615Z,101800.56
2023-05-19T23:49:58.368Z,101797.91
2023-05-19T23:55:00.220Z,101802.34
